Time;durP1;ratioP1;P1;durP2;ratioP2;P2;SDS_P1;SDS_P2;PMS_P1;PMS_P2;Temp;Humidity;BMP_temperature;BMP_pressure;BME280_temperature;BME280_humidity;BME280_pressure;Samples;Min_cycle;Max_cycle;Signal;HPM_P1;HPM_P2
2022/08/18 00:01:21;;;;;;;4.95;3.83;;;;;;;12.18;100.00;100872.13;4975415;28;20054;-79
2022/08/18 00:04:12;;;;;;;0.30;0.30;;;;;;;12.21;100.00;100869.06;4953672;28;20050;-82
2022/08/18 00:06:50;;;;;;;;;;;;;;;;;;;;;
2022/08/18 00:09:19;;;;;;;0.30;0.30;;;;;;;11.98;100.00;100814.38;4951620;28;20065;-79
2022/08/18 00:11:45;;;;;;;1.48;1.40;;;;;;;12.23;100.00;100848.16;4935170;28;20514;-79
2022/08/18 00:14:17;;;;;;;0.30;0.30;;;;;;;12.23;100.00;100841.94;4951904;28;20481;-77
2022/08/18 00:16:46;;;;;;;0.40;0.40;;;;;;;12.23;100.00;100837.38;4952214;28;20469;-78
2022/08/18 00:19:15;;;;;;;0.85;0.85;;;;;;;12.25;100.00;100834.47;4977356;28;20979;-78
2022/08/18 00:21:40;;;;;;;0.68;0.68;;;;;;;12.29;100.00;100836.63;4946783;28;20129;-78
2022/08/18 00:24:06;;;;;;;1.02;0.93;;;;;;;12.30;100.00;100834.75;4952576;28;20695;-77
2022/08/18 00:26:32;;;;;;;0.30;0.30;;;;;;;12.29;100.00;100830.41;4926522;28;20055;-79
2022/08/18 00:29:00;;;;;;;0.30;0.30;;;;;;;12.28;100.00;100823.34;4985504;28;20112;-77
2022/08/18 00:31:26;;;;;;;0.30;0.30;;;;;;;12.22;100.00;100813.28;4968103;28;20041;-77
2022/08/18 00:33:52;;;;;;;0.38;0.38;;;;;;;12.21;100.00;100792.75;4954945;28;20037;-77
2022/08/18 00:36:20;;;;;;;0.30;0.30;;;;;;;12.28;100.00;100813.41;4934090;28;20043;-79
2022/08/18 00:38:45;;;;;;;0.30;0.30;;;;;;;12.28;100.00;100813.41;4956676;28;20038;-78
2022/08/18 00:41:14;;;;;;;0.30;0.30;;;;;;;12.27;100.00;100803.63;4952228;28;20043;-77
2022/08/18 00:43:46;;;;;;;0.30;0.30;;;;;;;12.32;100.00;100806.59;4969189;28;20035;-79
2022/08/18 00:46:24;;;;;;;0.20;0.20;;;;;;;12.32;100.00;100803.91;4950964;28;20042;-78
2022/08/18 00:48:51;;;;;;;0.30;0.30;;;;;;;12.37;100.00;100807.91;4963252;28;20038;-80
2022/08/18 00:51:42;;;;;;;0.30;0.30;;;;;;;12.39;100.00;100787.81;4969489;28;20665;-77
2022/08/18 00:54:16;;;;;;;0.30;0.30;;;;;;;12.35;100.00;100770.34;4936241;28;20508;-79
2022/08/18 00:56:51;;;;;;;0.20;0.20;;;;;;;12.41;100.00;100774.13;4947193;28;20181;-79
2022/08/18 00:59:26;;;;;;;0.30;0.30;;;;;;;12.42;100.00;100768.56;4951695;28;20085;-78
2022/08/18 01:02:00;;;;;;;0.30;0.30;;;;;;;12.46;100.00;100774.41;4965024;28;20034;-76
2022/08/18 01:04:27;;;;;;;;;;;;;;;12.50;100.00;100773.84;4937993;28;20038;-77
2022/08/18 01:06:56;;;;;;;0.30;0.30;;;;;;;12.51;100.00;100772.00;4954782;28;19925;-77
2022/08/18 01:09:22;;;;;;;0.50;0.50;;;;;;;12.51;100.00;100772.00;4944954;28;20039;-77
2022/08/18 01:11:50;;;;;;;0.30;0.30;;;;;;;12.55;100.00;100773.28;4964957;28;20047;-78
2022/08/18 01:14:19;;;;;;;0.32;0.32;;;;;;;12.57;100.00;100763.16;4953493;28;20046;-77
2022/08/18 01:22:28;;;;;;;0.30;0.30;;;;;;;12.59;100.00;100755.69;4969605;28;20034;-79
2022/08/18 01:27:41;;;;;;;0.30;0.30;;;;;;;12.64;100.00;100747.03;4965102;28;20051;-77
2022/08/18 01:30:09;;;;;;;0.30;0.30;;;;;;;12.64;100.00;100739.78;4956095;28;20051;-76
2022/08/18 01:32:36;;;;;;;2.00;0.63;;;;;;;12.67;100.00;100731.31;4963999;28;20077;-77
2022/08/18 01:35:07;;;;;;;0.30;0.30;;;;;;;12.70;100.00;100730.94;4983463;28;20042;-76
2022/08/18 01:37:41;;;;;;;0.30;0.30;;;;;;;12.75;100.00;100728.53;4949874;28;20061;-76
2022/08/18 01:40:12;;;;;;;0.30;0.30;;;;;;;12.74;100.00;100716.03;4961020;28;20072;-78
2022/08/18 01:42:38;;;;;;;0.30;0.30;;;;;;;12.69;100.00;100698.75;4950515;28;20050;-76
2022/08/18 01:45:06;;;;;;;0.73;0.35;;;;;;;12.80;100.00;100713.59;4945963;28;20035;-76
2022/08/18 01:47:33;;;;;;;0.30;0.30;;;;;;;12.79;100.00;100707.38;4946549;28;20042;-79
2022/08/18 01:49:59;;;;;;;0.30;0.30;;;;;;;12.79;100.00;100703.84;4963229;28;20042;-77
2022/08/18 01:52:27;;;;;;;0.30;0.30;;;;;;;12.72;100.00;100691.09;4949381;28;20126;-79
2022/08/18 01:54:53;;;;;;;0.30;0.30;;;;;;;12.84;100.00;100707.63;4950480;28;20045;-78
2022/08/18 01:57:21;;;;;;;0.38;0.38;;;;;;;12.86;100.00;100704.72;4955098;28;20038;-78
2022/08/18 01:59:47;;;;;;;0.30;0.30;;;;;;;12.83;100.00;100697.84;4947772;28;20138;-79
2022/08/18 02:02:16;;;;;;;0.30;0.30;;;;;;;12.84;100.00;100704.94;4962654;28;20054;-79
2022/08/18 02:04:42;;;;;;;0.30;0.30;;;;;;;12.81;100.00;100691.84;4953825;28;20424;-77
2022/08/18 02:07:14;;;;;;;0.30;0.30;;;;;;;12.87;100.00;100696.47;4962573;28;20476;-78
2022/08/18 02:09:42;;;;;;;0.30;0.30;;;;;;;12.87;100.00;100693.75;4966997;28;20035;-77
2022/08/18 02:12:07;;;;;;;0.30;0.30;;;;;;;12.72;100.00;100677.63;4967667;28;20033;-80
2022/08/18 02:14:37;;;;;;;0.40;0.40;;;;;;;12.89;100.00;100693.56;4967093;28;20058;-77
2022/08/18 02:17:08;;;;;;;0.30;0.30;;;;;;;12.89;100.00;100690.88;4949643;28;20049;-76
2022/08/18 02:19:35;;;;;;;0.30;0.30;;;;;;;12.77;100.00;100672.47;4967399;28;20035;-77
2022/08/18 02:22:02;;;;;;;0.30;0.30;;;;;;;12.87;100.00;100690.22;4964214;28;20042;-79
2022/08/18 02:24:28;;;;;;;0.40;0.40;;;;;;;12.87;100.00;100692.94;4960856;28;20146;-77
2022/08/18 02:26:54;;;;;;;0.30;0.30;;;;;;;12.85;100.00;100684.19;4950190;28;20487;-78
2022/08/18 02:29:22;;;;;;;0.60;0.60;;;;;;;12.92;100.00;100687.78;4962542;28;20078;-77
2022/08/18 02:31:53;;;;;;;0.30;0.30;;;;;;;12.96;100.00;100686.34;4966212;28;20050;-77
2022/08/18 02:34:22;;;;;;;0.30;0.30;;;;;;;12.97;100.00;100680.78;4932399;28;20042;-78
2022/08/18 02:36:48;;;;;;;0.30;0.30;;;;;;;13.00;100.00;100670.63;4956902;28;20046;-78
2022/08/18 02:39:16;;;;;;;0.30;0.30;;;;;;;13.02;100.00;100660.44;4952603;28;20030;-77
2022/08/18 02:41:44;;;;;;;0.63;0.50;;;;;;;13.05;100.00;100679.00;4935610;28;20393;-77
2022/08/18 02:44:14;;;;;;;0.30;0.30;;;;;;;13.08;100.00;100659.69;4948643;28;20062;-76
2022/08/18 02:46:39;;;;;;;0.30;0.30;;;;;;;13.10;100.00;100663.88;4968320;28;20034;-77
2022/08/18 02:49:09;;;;;;;0.47;0.47;;;;;;;13.11;100.00;100659.31;4967420;28;20573;-77
2022/08/18 02:51:35;;;;;;;0.30;0.30;;;;;;;13.08;100.00;100663.22;4954691;28;20061;-77
2022/08/18 02:54:00;;;;;;;0.40;0.40;;;;;;;13.08;100.00;100649.72;4947608;28;20027;-80
2022/08/18 02:56:30;;;;;;;0.30;0.30;;;;;;;13.12;100.00;100656.38;4962285;28;20088;-77
2022/08/18 02:58:59;;;;;;;0.50;0.50;;;;;;;13.04;100.00;100637.63;4932502;28;20497;-77
2022/08/18 03:01:34;;;;;;;0.40;0.40;;;;;;;13.11;100.00;100641.25;4931069;28;20662;-77
2022/08/18 03:04:00;;;;;;;0.30;0.30;;;;;;;12.98;100.00;100619.53;4962372;28;20030;-78
2022/08/18 03:06:27;;;;;;;0.30;0.30;;;;;;;13.13;100.00;100641.88;4982889;28;20049;-78
2022/08/18 03:08:53;;;;;;;0.30;0.30;;;;;;;13.14;100.00;100632.75;4948956;28;20461;-78
2022/08/18 03:11:23;;;;;;;0.50;0.50;;;;;;;13.08;100.00;100620.03;4961947;28;20042;-76
2022/08/18 03:13:49;;;;;;;0.30;0.30;;;;;;;13.12;100.00;100632.09;4940959;28;20050;-77
2022/08/18 03:16:18;;;;;;;0.50;0.50;;;;;;;13.12;100.00;100626.69;4954057;28;20461;-76
2022/08/18 03:18:46;;;;;;;0.30;0.30;;;;;;;13.07;100.00;100621.06;4971047;28;20030;-77
2022/08/18 03:21:20;;;;;;;0.38;0.38;;;;;;;13.22;100.00;100639.03;4947413;28;20067;-78
2022/08/18 03:23:46;;;;;;;0.30;0.30;;;;;;;13.20;100.00;100617.63;4970532;28;20049;-77
2022/08/18 03:26:15;;;;;;;0.40;0.40;;;;;;;13.10;100.00;100609.06;4954852;28;20048;-76
2022/08/18 03:28:43;;;;;;;0.30;0.30;;;;;;;13.27;100.00;100631.22;4945496;28;20043;-78
2022/08/18 03:31:10;;;;;;;0.30;0.30;;;;;;;13.25;100.00;100620.56;4936805;28;20038;-79
2022/08/18 03:33:36;;;;;;;0.30;0.30;;;;;;;13.24;100.00;100609.97;4968888;28;20121;-76
2022/08/18 03:36:18;;;;;;;0.40;0.40;;;;;;;13.28;100.00;100619.38;4966488;28;20029;-77
2022/08/18 03:38:47;;;;;;;0.50;0.40;;;;;;;13.26;100.00;100611.47;4949463;28;20030;-76
2022/08/18 03:41:15;;;;;;;0.30;0.30;;;;;;;13.28;100.00;100603.16;4950718;28;20085;-77
2022/08/18 03:43:43;;;;;;;0.40;0.40;;;;;;;13.28;100.00;100603.16;4957110;28;20043;-79
2022/08/18 03:46:14;;;;;;;0.40;0.40;;;;;;;13.30;100.00;100599.25;4937876;28;20063;-78
2022/08/18 03:48:41;;;;;;;0.30;0.30;;;;;;;13.27;100.00;100596.13;4969062;28;20600;-78
2022/08/18 03:51:28;;;;;;;0.30;0.30;;;;;;;13.44;100.00;100602.03;4964236;28;20035;-76
2022/08/18 03:53:59;;;;;;;0.30;0.30;;;;;;;13.44;100.00;100591.22;4965417;28;20043;-76
2022/08/18 03:56:29;;;;;;;0.30;0.30;;;;;;;13.49;100.00;100597.69;4953857;28;20062;-76
2022/08/18 03:58:59;;;;;;;0.30;0.30;;;;;;;13.51;100.00;100597.50;4965981;28;20030;-77
2022/08/18 04:01:27;;;;;;;0.30;0.30;;;;;;;13.55;100.00;100582.59;4961084;28;20022;-77
2022/08/18 04:03:56;;;;;;;0.90;0.50;;;;;;;13.54;100.00;100587.13;4964727;28;20089;-78
2022/08/18 04:06:28;;;;;;;0.30;0.30;;;;;;;13.61;100.00;100587.19;4944809;28;20034;-79
2022/08/18 04:08:55;;;;;;;0.30;0.30;;;;;;;13.63;100.00;100588.66;4959172;28;20031;-79
2022/08/18 04:11:25;;;;;;;0.30;0.30;;;;;;;13.63;100.00;100588.66;4967885;28;20034;-77
2022/08/18 04:13:51;;;;;;;0.30;0.30;;;;;;;13.67;100.00;100586.38;4969984;28;20089;-76
2022/08/18 04:16:16;;;;;;;0.30;0.30;;;;;;;13.52;100.00;100542.44;4951199;28;20038;-77
2022/08/18 04:18:45;;;;;;;0.30;0.30;;;;;;;13.74;100.00;100579.13;4954360;28;20126;-77
2022/08/18 04:21:15;;;;;;;0.30;0.30;;;;;;;13.75;100.00;100572.69;4964649;28;20045;-78
2022/08/18 04:23:41;;;;;;;0.30;0.30;;;;;;;13.74;100.00;100562.94;4931529;28;20099;-77
2022/08/18 04:26:09;;;;;;;0.30;0.30;;;;;;;13.75;100.00;100555.66;4964076;28;20078;-78
2022/08/18 04:28:38;;;;;;;0.40;0.40;;;;;;;13.78;100.00;100568.75;4952152;28;20113;-76
2022/08/18 04:31:09;;;;;;;0.30;0.30;;;;;;;13.81;100.00;100554.81;4951691;28;20159;-76
2022/08/18 04:33:35;;;;;;;0.40;0.40;;;;;;;13.83;100.00;100564.41;4948739;28;20065;-77
2022/08/18 04:36:15;;;;;;;0.30;0.30;;;;;;;13.84;100.00;100560.69;4964872;28;20030;-78
2022/08/18 04:38:44;;;;;;;0.30;0.30;;;;;;;13.72;100.00;100526.31;4966749;28;20129;-79
2022/08/18 04:41:16;;;;;;;0.30;0.30;;;;;;;13.84;100.00;100543.63;4968280;28;20544;-76
2022/08/18 04:43:42;;;;;;;0.30;0.30;;;;;;;13.85;100.00;100546.13;4950260;28;20031;-77
2022/08/18 04:46:08;;;;;;;0.30;0.30;;;;;;;13.95;100.00;100553.03;4958613;28;20454;-79
2022/08/18 04:48:36;;;;;;;0.30;0.30;;;;;;;13.95;100.00;100548.44;4959527;28;20494;-79
2022/08/18 04:51:08;;;;;;;0.30;0.30;;;;;;;13.99;100.00;100547.00;4966637;28;20034;-80
2022/08/18 04:53:44;;;;;;;0.30;0.30;;;;;;;13.98;100.00;100539.94;4961627;28;20501;-78
2022/08/18 04:56:25;;;;;;;0.30;0.30;;;;;;;13.93;100.00;100537.00;4971251;28;20062;-77
2022/08/18 04:59:05;;;;;;;0.30;0.30;;;;;;;14.00;100.00;100545.97;4980049;28;20042;-78
2022/08/18 05:01:38;;;;;;;0.30;0.30;;;;;;;13.97;100.00;100543.69;4953271;28;20031;-77
2022/08/18 05:04:04;;;;;;;0.30;0.30;;;;;;;14.04;100.00;100552.63;4947514;28;20035;-77
2022/08/18 05:06:31;;;;;;;0.30;0.30;;;;;;;14.06;100.00;100552.44;4945138;28;20057;-78
2022/08/18 05:09:00;;;;;;;0.30;0.30;;;;;;;14.04;100.00;100539.09;4951410;28;20035;-77
2022/08/18 05:11:33;;;;;;;0.32;0.32;;;;;;;14.05;100.00;100542.63;4974977;28;20030;-77
2022/08/18 05:14:06;;;;;;;0.30;0.30;;;;;;;14.06;100.00;100537.03;4953225;28;20034;-79
2022/08/18 05:16:35;;;;;;;0.30;0.30;;;;;;;14.09;100.00;100538.50;4965679;28;20038;-77
2022/08/18 05:19:11;;;;;;;0.30;0.30;;;;;;;14.01;100.00;100520.59;4957155;28;20166;-78
2022/08/18 05:21:41;;;;;;;0.30;0.30;;;;;;;14.11;100.00;100532.91;4948491;28;20038;-78
2022/08/18 05:24:08;;;;;;;0.30;0.30;;;;;;;14.03;100.00;100506.88;4966775;28;20138;-79
2022/08/18 05:26:34;;;;;;;0.30;0.30;;;;;;;14.14;100.00;100521.66;4953079;28;20152;-78
2022/08/18 05:29:03;;;;;;;0.30;0.30;;;;;;;14.16;100.00;100530.41;4966791;28;20035;-77
2022/08/18 05:31:29;;;;;;;0.30;0.30;;;;;;;14.09;100.00;100519.56;4944469;28;20045;-78
2022/08/18 05:33:55;;;;;;;0.40;0.40;;;;;;;14.19;100.00;100530.84;4985741;28;20026;-77
2022/08/18 05:36:42;;;;;;;0.30;0.30;;;;;;;14.24;100.00;100533.75;4948643;28;20492;-80
2022/08/18 05:39:28;;;;;;;0.30;0.30;;;;;;;14.24;100.00;100524.81;4970359;28;20047;-79
2022/08/18 05:41:57;;;;;;;0.20;0.20;;;;;;;14.19;100.00;100502.97;4964355;28;20078;-77
2022/08/18 05:44:31;;;;;;;0.30;0.30;;;;;;;14.31;100.00;100522.94;4950194;28;20034;-79
2022/08/18 05:47:06;;;;;;;0.30;0.30;;;;;;;14.36;100.00;100528.56;4949172;28;20051;-77
2022/08/18 05:49:38;;;;;;;0.30;0.30;;;;;;;14.07;100.00;100476.50;4966742;28;20043;-76
2022/08/18 05:52:33;;;;;;;0.30;0.30;;;;;;;14.42;100.00;100525.03;4968446;28;20151;-79
2022/08/18 05:57:57;;;;;;;0.35;0.35;;;;;;;14.48;100.00;100516.09;4950053;28;20054;-79
2022/08/18 06:00:23;;;;;;;0.30;0.30;;;;;;;14.49;100.00;100516.91;4985921;28;20031;-80
2022/08/18 06:03:00;;;;;;;0.20;0.20;;;;;;;14.33;100.00;100477.59;4967917;28;20405;-80
2022/08/18 06:05:34;;;;;;;0.30;0.30;;;;;;;14.49;100.00;100496.09;4961799;28;20567;-78
2022/08/18 06:08:09;;;;;;;0.38;0.38;;;;;;;14.57;100.00;100502.38;4937675;28;20034;-77
2022/08/18 06:10:36;;;;;;;0.30;0.30;;;;;;;14.56;100.00;100498.84;4961477;28;20533;-80
2022/08/18 06:13:07;;;;;;;0.30;0.30;;;;;;;14.62;100.00;100505.31;4948309;28;20030;-79
2022/08/18 06:15:51;;;;;;;0.30;0.30;;;;;;;14.64;100.00;100495.94;4951952;28;20117;-77
2022/08/18 06:18:26;;;;;;;0.30;0.30;;;;;;;14.50;100.00;100476.16;4966513;28;20026;-77
2022/08/18 06:21:14;;;;;;;0.30;0.30;;;;;;;14.69;100.00;100495.31;4952929;28;20334;-78
2022/08/18 06:23:49;;;;;;;0.30;0.30;;;;;;;14.72;100.00;100489.47;4966735;28;20030;-79
2022/08/18 06:26:19;;;;;;;0.30;0.30;;;;;;;14.74;100.00;100490.13;4954192;28;20039;-81
2022/08/18 06:28:53;;;;;;;0.30;0.30;;;;;;;14.74;100.00;100495.53;4964587;28;20134;-78
2022/08/18 06:31:30;;;;;;;0.30;0.30;;;;;;;14.68;100.00;100478.22;4964742;28;20501;-77
2022/08/18 06:34:08;;;;;;;0.30;0.30;;;;;;;14.46;100.00;100433.47;4936226;28;20089;-81
2022/08/18 06:37:22;;;;;;;0.30;0.30;;;;;;;14.77;100.00;100484.28;4950933;28;20045;-79
2022/08/18 06:39:57;;;;;;;0.30;0.30;;;;;;;14.76;100.00;100477.19;4945568;28;20517;-79
2022/08/18 06:42:29;;;;;;;0.30;0.30;;;;;;;14.69;100.00;100465.56;4962860;28;20065;-77
2022/08/18 06:45:05;;;;;;;0.30;0.30;;;;;;;14.86;100.00;100491.13;4944935;28;20042;-78
2022/08/18 06:47:58;;;;;;;0.30;0.30;;;;;;;14.87;100.00;100484.69;4977424;28;20046;-78
2022/08/18 06:50:32;;;;;;;;;;;;;;;14.90;100.00;100489.66;4937353;28;20481;-77
2022/08/18 06:53:00;;;;;;;0.40;0.40;;;;;;;14.90;100.00;100478.00;4948516;28;19992;-79
2022/08/18 06:55:44;;;;;;;0.30;0.30;;;;;;;15.04;100.00;100476.94;4947736;28;20181;-78
2022/08/18 06:58:12;;;;;;;0.30;0.30;;;;;;;15.16;100.00;100469.81;4972785;28;20046;-76
2022/08/18 07:00:45;;;;;;;0.30;0.30;;;;;;;15.25;100.00;100465.00;4951515;28;20420;-78
2022/08/18 07:03:53;;;;;;;0.30;0.30;;;;;;;15.35;100.00;100457.25;4972654;28;20205;-78
2022/08/18 07:06:20;;;;;;;0.30;0.30;;;;;;;15.39;100.00;100461.19;4948251;28;20035;-78
2022/08/18 07:08:47;;;;;;;0.30;0.30;;;;;;;15.39;100.00;100455.75;4954772;28;20038;-76
2022/08/18 07:11:13;;;;;;;0.30;0.30;;;;;;;15.39;100.00;100463.88;4936539;28;20042;-78
2022/08/18 07:13:41;;;;;;;0.30;0.30;;;;;;;15.29;100.00;100438.31;4949823;28;20047;-77
2022/08/18 07:16:33;;;;;;;0.30;0.30;;;;;;;15.44;100.00;100446.16;4936598;28;20042;-77
2022/08/18 07:19:10;;;;;;;0.30;0.30;;;;;;;15.41;100.00;100444.72;4947045;28;20042;-79
2022/08/18 07:21:38;;;;;;;0.30;0.30;;;;;;;15.44;100.00;100451.59;4950099;28;20412;-77
2022/08/18 07:24:11;;;;;;;0.40;0.40;;;;;;;15.50;100.00;100442.59;4943089;28;20241;-78
2022/08/18 07:26:57;;;;;;;0.30;0.30;;;;;;;15.56;100.00;100448.00;4973423;28;20031;-79
2022/08/18 07:29:23;;;;;;;0.30;0.30;;;;;;;15.63;100.00;100449.81;4961931;28;20042;-78
2022/08/18 07:31:51;;;;;;;0.30;0.30;;;;;;;15.68;100.00;100448.13;4973694;28;20100;-77
2022/08/18 07:34:24;;;;;;;0.35;0.35;;;;;;;15.71;100.00;100441.47;4961862;28;20122;-78
2022/08/18 07:37:13;;;;;;;0.40;0.40;;;;;;;15.70;100.00;100445.25;4953583;28;20046;-79
2022/08/18 07:39:44;;;;;;;0.30;0.30;;;;;;;15.70;100.00;100440.66;4965507;28;20540;-79
2022/08/18 07:42:31;;;;;;;0.40;0.40;;;;;;;15.78;100.00;100453.13;4945200;28;20496;-77
2022/08/18 07:45:03;;;;;;;0.30;0.30;;;;;;;15.85;100.00;100442.22;4965765;28;20034;-77
2022/08/18 07:47:32;;;;;;;0.55;0.32;;;;;;;15.82;100.00;100430.78;4947427;28;20043;-77
2022/08/18 07:49:57;;;;;;;0.30;0.30;;;;;;;16.03;100.00;100443.13;4964504;28;20181;-78
2022/08/18 07:52:35;;;;;;;0.40;0.40;;;;;;;16.20;100.00;100434.47;4966734;28;20102;-78
2022/08/18 07:55:13;;;;;;;0.30;0.30;;;;;;;16.23;100.00;100423.19;4978895;28;20027;-78
2022/08/18 07:57:58;;;;;;;0.30;0.30;;;;;;;16.30;100.00;100429.38;4961029;28;20548;-81
2022/08/18 08:00:28;;;;;;;0.30;0.30;;;;;;;16.43;100.00;100428.41;4950506;28;20044;-78
2022/08/18 08:03:10;;;;;;;0.40;0.40;;;;;;;16.58;100.00;100441.66;4940652;28;20087;-77
2022/08/18 08:05:49;;;;;;;0.32;0.32;;;;;;;16.63;100.00;100439.94;4956724;28;20042;-78
2022/08/18 08:08:20;;;;;;;0.30;0.30;;;;;;;16.73;100.00;100444.03;4972539;28;20089;-80
2022/08/18 08:11:04;;;;;;;0.30;0.30;;;;;;;16.79;100.00;100443.16;4964784;28;20050;-78
2022/08/18 08:14:00;;;;;;;0.40;0.40;;;;;;;16.73;100.00;100435.88;4973190;28;20113;-77
2022/08/18 08:16:44;;;;;;;0.30;0.30;;;;;;;16.82;100.00;100445.41;4965347;28;20528;-78
2022/08/18 08:19:30;;;;;;;0.32;0.32;;;;;;;16.85;100.00;100436.81;4956242;28;20467;-78
2022/08/18 08:22:23;;;;;;;0.30;0.30;;;;;;;16.78;100.00;100436.91;4955349;28;20037;-77
2022/08/18 08:25:14;;;;;;;0.40;0.40;;;;;;;16.60;100.00;100434.94;4985213;28;20066;-78
2022/08/18 08:28:22;;;;;;;0.40;0.40;;;;;;;16.46;100.00;100434.25;4971039;28;20065;-78
2022/08/18 08:31:18;;;;;;;0.30;0.30;;;;;;;16.44;100.00;100427.38;4969405;28;20212;-84
2022/08/18 08:33:54;;;;;;;0.30;0.30;;;;;;;16.59;100.00;100421.59;4969550;28;20047;-83
2022/08/18 08:36:29;;;;;;;0.30;0.30;;;;;;;16.84;100.00;100425.13;4938987;28;20125;-85
2022/08/18 08:39:05;;;;;;;0.35;0.35;;;;;;;17.01;100.00;100411.78;4959432;28;20118;-83
2022/08/18 08:41:39;;;;;;;0.40;0.40;;;;;;;17.12;100.00;100412.91;4954101;28;20042;-84
2022/08/18 08:44:09;;;;;;;0.40;0.40;;;;;;;16.80;100.00;100391.31;4940247;28;20038;-84
2022/08/18 08:46:48;;;;;;;0.30;0.30;;;;;;;16.90;100.00;100428.84;4936551;28;20023;-84
2022/08/18 08:49:47;;;;;;;0.30;0.30;;;;;;;16.94;100.00;100407.50;4957614;28;20069;-83
2022/08/18 08:52:42;;;;;;;0.30;0.30;;;;;;;16.97;100.00;100407.88;4957664;28;20124;-85
2022/08/18 08:55:15;;;;;;;0.30;0.30;;;;;;;17.09;100.00;100422.38;4957005;28;20072;-86
2022/08/18 08:57:43;;;;;;;;;;;;;;;17.04;100.00;100424.94;4941148;28;20446;-85
2022/08/18 09:00:11;;;;;;;0.30;0.30;;;;;;;16.93;100.00;100420.22;4968064;28;19918;-86
2022/08/18 09:03:10;;;;;;;0.30;0.30;;;;;;;16.94;100.00;100411.03;4966148;28;20034;-84
2022/08/18 09:05:59;;;;;;;0.30;0.30;;;;;;;16.98;100.00;100409.50;4978011;28;20042;-84
2022/08/18 09:08:28;;;;;;;0.30;0.30;;;;;;;16.99;100.00;100400.34;4963539;28;20031;-83
2022/08/18 09:11:42;;;;;;;0.30;0.30;;;;;;;17.01;100.00;100394.66;4977917;28;20101;-83
2022/08/18 09:14:31;;;;;;;0.40;0.38;;;;;;;16.96;100.00;100395.31;4975010;28;20054;-84
2022/08/18 09:17:23;;;;;;;0.30;0.30;;;;;;;17.03;100.00;100389.84;4968721;28;20131;-83
2022/08/18 09:20:07;;;;;;;0.30;0.30;;;;;;;16.98;100.00;100401.38;4950076;28;20273;-83
2022/08/18 09:22:44;;;;;;;0.30;0.30;;;;;;;16.99;100.00;100402.19;4974915;28;20044;-84
2022/08/18 09:25:40;;;;;;;0.35;0.35;;;;;;;17.08;100.00;100392.69;4961121;28;20086;-84
2022/08/18 09:28:22;;;;;;;0.40;0.40;;;;;;;17.37;100.00;100377.47;4970381;28;20038;-84
2022/08/18 09:31:12;;;;;;;0.40;0.40;;;;;;;18.01;100.00;100383.25;4954296;28;20481;-85
2022/08/18 09:33:47;;;;;;;0.30;0.30;;;;;;;17.94;100.00;100377.09;4971051;28;20027;-84
2022/08/18 09:36:37;;;;;;;0.30;0.30;;;;;;;17.69;100.00;100382.69;4943575;28;20041;-85
2022/08/18 09:42:04;;;;;;;0.30;0.30;;;;;;;17.23;100.00;100351.56;4966042;28;20045;-85
2022/08/18 09:44:45;;;;;;;0.30;0.30;;;;;;;17.53;100.00;100382.28;4944711;28;20039;-84
2022/08/18 09:47:25;;;;;;;0.30;0.30;;;;;;;17.57;100.00;100369.03;4966966;28;20040;-85
2022/08/18 09:49:54;;;;;;;0.40;0.40;;;;;;;17.79;100.00;100372.09;4965622;28;20428;-85
2022/08/18 09:52:19;;;;;;;0.30;0.30;;;;;;;17.93;100.00;100373.53;4937727;28;20133;-84
2022/08/18 09:55:02;;;;;;;0.30;0.30;;;;;;;18.02;100.00;100365.88;4955132;28;20481;-85
2022/08/18 09:57:33;;;;;;;0.40;0.40;;;;;;;18.22;100.00;100354.66;4963268;28;20524;-86
2022/08/18 10:00:02;;;;;;;0.30;0.30;;;;;;;18.18;100.00;100359.75;4973258;28;20492;-84
2022/08/18 10:02:36;;;;;;;0.32;0.32;;;;;;;18.13;100.00;100353.34;4972160;28;20047;-84
2022/08/18 10:05:14;;;;;;;0.30;0.30;;;;;;;18.12;100.00;100366.09;4970181;28;20130;-86
2022/08/18 10:08:02;;;;;;;0.30;0.30;;;;;;;17.91;100.00;100364.78;4956259;28;20034;-85
2022/08/18 10:11:31;;;;;;;0.30;0.30;;;;;;;17.74;100.00;100369.22;4949167;28;20046;-86
2022/08/18 10:14:43;;;;;;;0.32;0.32;;;;;;;17.80;100.00;100363.69;4952993;28;20038;-85
2022/08/18 10:17:21;;;;;;;0.40;0.40;;;;;;;17.93;100.00;100373.53;4969959;28;20393;-85
2022/08/18 10:20:03;;;;;;;0.30;0.30;;;;;;;18.28;100.00;100361.84;4944857;28;20126;-86
2022/08/18 10:22:42;;;;;;;0.40;0.40;;;;;;;18.75;100.00;100358.31;4949235;28;20046;-86
2022/08/18 10:25:10;;;;;;;0.40;0.40;;;;;;;18.98;100.00;100355.53;4950827;28;20034;-87
2022/08/18 10:27:45;;;;;;;0.30;0.30;;;;;;;18.97;100.00;100369.41;4961002;28;20049;-87
2022/08/18 10:30:32;;;;;;;0.30;0.30;;;;;;;18.91;100.00;100362.19;4966141;28;20034;-88
2022/08/18 10:33:04;;;;;;;0.40;0.40;;;;;;;18.98;100.00;100374.63;4952984;28;20038;-87
2022/08/18 10:35:33;;;;;;;0.52;0.52;;;;;;;19.26;100.00;100375.69;4940483;28;20397;-87
2022/08/18 10:38:02;;;;;;;0.50;0.50;;;;;;;19.81;100.00;100375.13;4962803;28;20545;-87
2022/08/18 10:40:28;;;;;;;0.40;0.40;;;;;;;20.03;100.00;100352.56;4970026;28;20027;-87
2022/08/18 10:43:08;;;;;;;0.32;0.32;;;;;;;19.98;100.00;100342.41;4941809;28;20153;-88
2022/08/18 10:45:44;;;;;;;0.40;0.40;;;;;;;19.62;100.00;100354.56;4947730;28;20062;-86
2022/08/18 10:48:20;;;;;;;0.40;0.40;;;;;;;18.88;100.00;100342.53;4932413;28;20438;-89
2022/08/18 10:51:24;;;;;;;0.40;0.40;;;;;;;18.93;100.00;100355.44;4968791;28;20031;-88
2022/08/18 10:53:59;;;;;;;0.40;0.40;;;;;;;19.06;100.00;100357.06;4958584;28;20038;-87
2022/08/18 10:56:32;;;;;;;0.88;0.40;;;;;;;18.83;100.00;100339.69;4953391;28;20061;-89
2022/08/18 10:59:18;;;;;;;;;;;;;;;19.44;100.00;100355.59;4979821;28;20459;-89
2022/08/18 11:01:54;;;;;;;0.50;0.50;;;;;;;20.09;100.00;100330.56;4973388;28;20335;-86
2022/08/18 11:04:37;;;;;;;0.40;0.40;;;;;;;20.23;100.00;100322.03;4958794;28;20382;-88
2022/08/18 11:07:11;;;;;;;0.50;0.50;;;;;;;20.30;100.00;100352.72;4954893;28;20052;-89
2022/08/18 11:09:38;;;;;;;0.40;0.40;;;;;;;20.15;100.00;100365.03;4935192;28;20122;-87
2022/08/18 11:12:05;;;;;;;0.30;0.30;;;;;;;19.89;100.00;100365.72;4938977;28;20042;-88
2022/08/18 11:14:41;;;;;;;0.40;0.40;;;;;;;20.09;100.00;100366.06;4950029;28;20045;-88
2022/08/18 11:17:45;;;;;;;0.40;0.40;;;;;;;21.01;100.00;100358.34;4972158;28;20066;-88
2022/08/18 11:20:13;;;;;;;0.40;0.40;;;;;;;21.37;100.00;100351.38;4943610;28;20401;-88
2022/08/18 11:22:50;;;;;;;0.30;0.30;;;;;;;20.42;100.00;100337.88;4947232;28;20033;-89
2022/08/18 11:25:31;;;;;;;0.40;0.40;;;;;;;20.12;100.00;100337.44;4970696;28;20381;-89
2022/08/18 11:27:58;;;;;;;0.30;0.30;;;;;;;19.69;100.00;100358.84;4949087;28;20124;-88
2022/08/18 11:30:48;;;;;;;0.40;0.40;;;;;;;19.79;100.00;100369.06;4970261;28;20362;-88
2022/08/18 11:33:17;;;;;;;0.30;0.30;;;;;;;19.83;100.00;100367.53;4979660;28;20393;-88
2022/08/18 11:35:51;;;;;;;0.40;0.40;;;;;;;19.82;100.00;100357.69;4966350;28;20062;-87
2022/08/18 11:38:20;;;;;;;0.30;0.30;;;;;;;19.94;100.00;100357.59;4957013;28;20042;-89
2022/08/18 11:40:55;;;;;;;0.40;0.40;;;;;;;19.79;100.00;100324.59;4955215;28;20049;-88
2022/08/18 11:43:28;;;;;;;0.40;0.40;;;;;;;20.42;100.00;100353.44;4938126;28;20148;-88
2022/08/18 11:45:58;;;;;;;0.50;0.50;;;;;;;20.61;100.00;100356.72;4986632;28;20117;-89
2022/08/18 11:48:27;;;;;;;0.40;0.40;;;;;;;21.13;100.00;100350.03;4944878;28;20453;-88
2022/08/18 11:50:55;;;;;;;0.40;0.40;;;;;;;20.67;100.00;100354.91;4971319;28;20053;-88
2022/08/18 11:53:23;;;;;;;0.30;0.30;;;;;;;20.49;100.00;100362.28;4994969;28;20019;-88
2022/08/18 11:56:19;;;;;;;0.40;0.40;;;;;;;20.91;100.00;100359.06;4958818;28;20046;-89
2022/08/18 11:58:46;;;;;;;0.40;0.40;;;;;;;21.03;100.00;100353.47;4975835;28;20030;-88
2022/08/18 12:01:32;;;;;;;0.30;0.30;;;;;;;20.67;100.00;100357.63;4940878;28;20038;-89
2022/08/18 12:04:13;;;;;;;0.40;0.40;;;;;;;20.62;100.00;100361.13;4971809;28;20049;-91
2022/08/18 12:07:04;;;;;;;0.40;0.40;;;;;;;20.72;100.00;100361.28;4950668;28;20058;-89